Map

Track Data

SID SEASON NUMBER BASIN SUBBASIN NAME ISO_TIME NATURE LAT LON WMO_WIND WMO_PRES WMO_AGENCY TRACK_TYPE DIST2LAND LANDFALL IFLAG USA_AGENCY USA_ATCF_ID USA_LAT USA_LON USA_RECORD USA_STATUS USA_WIND USA_PRES USA_SSHS USA_R34_NE USA_R34_SE USA_R34_SW USA_R34_NW USA_R50_NE USA_R50_SE USA_R50_SW USA_R50_NW USA_R64_NE USA_R64_SE USA_R64_SW USA_R64_NW USA_POCI USA_ROCI USA_RMW USA_EYE TOKYO_LAT TOKYO_LON TOKYO_GRADE TOKYO_WIND TOKYO_PRES TOKYO_R50_DIR TOKYO_R50_LONG TOKYO_R50_SHORT TOKYO_R30_DIR TOKYO_R30_LONG TOKYO_R30_SHORT TOKYO_LAND CMA_LAT CMA_LON CMA_CAT CMA_WIND CMA_PRES HKO_LAT HKO_LON HKO_CAT HKO_WIND HKO_PRES NEWDELHI_LAT NEWDELHI_LON NEWDELHI_GRADE NEWDELHI_WIND NEWDELHI_PRES NEWDELHI_CI NEWDELHI_DP NEWDELHI_POCI REUNION_LAT REUNION_LON REUNION_TYPE REUNION_WIND REUNION_PRES REUNION_TNUM REUNION_CI REUNION_RMW REUNION_R34_NE REUNION_R34_SE REUNION_R34_SW REUNION_R34_NW REUNION_R50_NE REUNION_R50_SE REUNION_R50_SW REUNION_R50_NW REUNION_R64_NE REUNION_R64_SE REUNION_R64_SW REUNION_R64_NW BOM_LAT BOM_LON BOM_TYPE BOM_WIND BOM_PRES BOM_TNUM BOM_CI BOM_RMW BOM_R34_NE BOM_R34_SE BOM_R34_SW BOM_R34_NW BOM_R50_NE BOM_R50_SE BOM_R50_SW BOM_R50_NW BOM_R64_NE BOM_R64_SE BOM_R64_SW BOM_R64_NW BOM_ROCI BOM_POCI BOM_EYE BOM_POS_METHOD BOM_PRES_METHOD NADI_LAT NADI_LON NADI_CAT NADI_WIND NADI_PRES WELLINGTON_LAT WELLINGTON_LON WELLINGTON_WIND WELLINGTON_PRES DS824_LAT DS824_LON DS824_STAGE DS824_WIND DS824_PRES TD9636_LAT TD9636_LON TD9636_STAGE TD9636_WIND TD9636_PRES TD9635_LAT TD9635_LON TD9635_WIND TD9635_PRES TD9635_ROCI NEUMANN_LAT NEUMANN_LON NEUMANN_CLASS NEUMANN_WIND NEUMANN_PRES MLC_LAT MLC_LON MLC_CLASS MLC_WIND MLC_PRES USA_GUST BOM_GUST BOM_GUST_PER REUNION_GUST REUNION_GUST_PER USA_SEAHGT USA_SEARAD_NE USA_SEARAD_SE USA_SEARAD_SW USA_SEARAD_NW STORM_SPEED STORM_DIR
2015063S14042 2015 13 SI MM NOT_NAMED 2015-03-04 06:00:00 TS -14.1000 41.9000 main 126 123 O_____________ jtwc_sh SH152015 -14.1000 41.9000 TD 25 1004 -1 1011 180 40 3 0
2015063S14042 2015 13 SI MM NOT_NAMED 2015-03-04 09:00:00 TS -14.2500 41.9050 main 123 119 P_____________ SH152015 -14.2500 41.9050 TD 25 1004 -1 1011 180 40 3 0
2015063S14042 2015 13 SI MM NOT_NAMED 2015-03-04 12:00:00 TS -14.4000 41.9000 main 119 118 O_____________ jtwc_sh SH152015 -14.4000 41.9000 TD 25 1004 -1 1011 180 40 3 0
2015063S14042 2015 13 SI MM NOT_NAMED 2015-03-04 15:00:00 TS -14.5500 41.8850 main 118 118 P_____________ SH152015 -14.5500 41.8850 TD 27 1002 -1 1009 180 37 3 0
2015063S14042 2015 13 SI MM NOT_NAMED 2015-03-04 18:00:00 TS -14.7000 41.9000 main 118 118 O_____________ jtwc_sh SH152015 -14.7000 41.9000 TD 30 1000 -1 1008 180 35 3 160
2015063S14042 2015 13 SI MM NOT_NAMED 2015-03-04 21:00:00 TS -14.8425 41.9925 main 129 129 P_____________ SH152015 -14.8425 41.9925 TD 30 1000 -1 1008 180 35 4 147
2015063S14042 2015 13 SI MM NOT_NAMED 2015-03-05 00:00:00 TS -15.0000 42.1000 main 139 139 O_____________ jtwc_sh SH152015 -15.0000 42.1000 TD 30 1000 -1 1009 180 35 4 153
2015063S14042 2015 13 SI MM NOT_NAMED 2015-03-05 03:00:00 TS -15.1727 42.1670 main 152 152 P_____________ SH152015 -15.1727 42.1670 TD 30 1000 -1 1009 190 35 4 167
2015063S14042 2015 13 SI MM NOT_NAMED 2015-03-05 06:00:00 TS -15.4000 42.2000 main 156 156 O_____________ jtwc_sh SH152015 -15.4000 42.2000 TD 30 1000 -1 1009 200 35 5 175
2015063S14042 2015 13 SI MM NOT_NAMED 2015-03-05 09:00:00 TS -15.7000 42.2000 main 169 169 O_____________ jtwc_sh SH152015 -15.7000 42.2000 TD 30 1000 -1 1009 200 35 6 189
2015063S14042 2015 13 SI MM NOT_NAMED 2015-03-05 12:00:00 TS -16.0000 42.1000 main 174 174 O_____________ jtwc_sh SH152015 -16.0000 42.1000 TS 35 996 0 1007 185 35 5 190
2015063S14042 2015 13 SI MM NOT_NAMED 2015-03-05 15:00:00 TS -16.2341 42.0999 main 183 183 P_____________ SH152015 -16.2341 42.0999 TS 35 996 0 1007 182 35 4 0
2015063S14042 2015 13 SI MM NOT_NAMED 2015-03-05 18:00:00 TS -16.4000 42.1000 main 195 193 O_____________ jtwc_sh SH152015 -16.4000 42.1000 TS 35 996 0 1007 180 35 3 200
2015063S14042 2015 13 SI MM NOT_NAMED 2015-03-05 21:00:00 TS -16.5375 41.9801 main 193 180 P_____________ SH152015 -16.5375 41.9801 TS 35 996 0 1008 180 35 4 235
2015063S14042 2015 13 SI MM NOT_NAMED 2015-03-06 00:00:00 TS -16.6000 41.8000 main 180 163 O_____________ jtwc_sh SH152015 -16.6000 41.8000 TS 35 996 0 1009 180 35 4 266
2015063S14042 2015 13 SI MM NOT_NAMED 2015-03-06 03:00:00 TS -16.5651 41.5849 main 163 139 P_____________ SH152015 -16.5651 41.5849 TS 35 996 0 1009 180 35 4 285
2015063S14042 2015 13 SI MM NOT_NAMED 2015-03-06 06:00:00 TS -16.5000 41.4000 main 139 131 O_____________ jtwc_sh SH152015 -16.5000 41.4000 TS 35 996 0 1009 180 35 3 284
2015063S14042 2015 13 SI MM NOT_NAMED 2015-03-06 09:00:00 TS -16.5000 41.3200 main 131 131 P_____________ SH152015 -16.5000 41.3200 TS 32 998 -1 1009 185 35 1 270
2015063S14042 2015 13 SI MM NOT_NAMED 2015-03-06 12:00:00 TS -16.5000 41.3000 main 131 131 O_____________ jtwc_sh SH152015 -16.5000 41.3000 TD 30 1000 -1 1009 190 35 1 317
2015063S14042 2015 13 SI MM NOT_NAMED 2015-03-06 15:00:00 TS -16.4500 41.2850 main 124 124 P_____________ SH152015 -16.4500 41.2850 TD 30 1000 -1 1009 185 35 1 0
2015063S14042 2015 13 SI MM NOT_NAMED 2015-03-06 18:00:00 TS -16.4000 41.3000 main 124 124 O_____________ jtwc_sh SH152015 -16.4000 41.3000 TD 30 1000 -1 1009 180 35 1 57
2015063S14042 2015 13 SI MM NOT_NAMED 2015-03-06 21:00:00 TS -16.3925 41.3800 main 132 132 P_____________ SH152015 -16.3925 41.3800 TD 30 1000 -1 1009 180 35 1 90
2015063S14042 2015 13 SI MM NOT_NAMED 2015-03-07 00:00:00 TS -16.4000 41.4000 main 132 115 O_____________ jtwc_sh SH152015 -16.4000 41.4000 TD 30 1000 -1 1009 180 35 2 275
2015063S14042 2015 13 SI MM NOT_NAMED 2015-03-07 03:00:00 TS -16.3796 41.2136 main 115 100 P_____________ SH152015 -16.3796 41.2136 TD 30 1000 -1 1009 175 35 4 270
2015063S14042 2015 13 SI MM NOT_NAMED 2015-03-07 06:00:00 TS -16.4000 41.0000 main 100 92 O_____________ jtwc_sh SH152015 -16.4000 41.0000 TD 30 1000 -1 1009 170 35 3 248
2015063S14042 2015 13 SI MM NOT_NAMED 2015-03-07 09:00:00 TS -16.5000 40.9000 main 100 91 O_____________ jtwc_sh SH152015 -16.5000 40.9000 TD 30 1000 -1 1009 170 35 3 224
2015063S14042 2015 13 SI MM NOT_NAMED 2015-03-07 12:00:00 TS -16.6000 40.8000 main 96 96 O_____________ jtwc_sh SH152015 -16.6000 40.8000 TD 25 1004 -1 1009 165 35 1 146
2015063S14042 2015 13 SI MM NOT_NAMED 2015-03-07 15:00:00 TS -16.6137 40.9784 main 115 115 P_____________ SH152015 -16.6137 40.9784 TD 25 1004 -1 1009 165 35 5 90
2015063S14042 2015 13 SI MM NOT_NAMED 2015-03-07 18:00:00 TS -16.6000 41.3000 main 139 139 O_____________ jtwc_sh SH152015 -16.6000 41.3000 TD 25 1004 -1 1009 165 35 5 92
2015063S14042 2015 13 SI MM NOT_NAMED 2015-03-07 21:00:00 TS -16.6349 41.5425 main 154 154 P_____________ SH152015 -16.6349 41.5425 TD 25 1004 -1 1009 165 35 5 102
2015063S14042 2015 13 SI MM NOT_NAMED 2015-03-08 00:00:00 TS -16.7000 41.8000 main 186 186 O_____________ jtwc_sh SH152015 -16.7000 41.8000 TD 25 1004 -1 1009 165 35 5 103
2015063S14042 2015 13 SI MM NOT_NAMED 2015-03-08 03:00:00 TS -16.7471 42.0330 main 204 172 P_____________ SH152015 -16.7471 42.0330 TD 25 1004 -1 1009 165 35 6 109
2015063S14042 2015 13 SI MM NOT_NAMED 2015-03-08 06:00:00 TS -16.9000 42.4000 main 172 91 O_____________ jtwc_sh SH152015 -16.9000 42.4000 TD 25 1004 -1 1009 165 35 11 117
2015063S14042 2015 13 SI MM NOT_NAMED 2015-03-08 09:00:00 TS -17.2708 43.0991 main 87 21 P_____________ SH152015 -17.2708 43.0991 TD 25 1004 -1 1009 165 35 16 121
2015063S14042 2015 13 SI MM NOT_NAMED 2015-03-08 12:00:00 TS -17.7000 43.8000 main 21 0 O_____________ jtwc_sh SH152015 -17.7000 43.8000 TD 25 1004 -1 1009 165 35 12 126
2015063S14042 2015 13 SI MM NOT_NAMED 2015-03-08 15:00:00 TS -17.9920 44.1532 main 0 0 P_____________ SH152015 -17.9920 44.1532 TD 25 1004 -1 1008 165 35 8 136
2015063S14042 2015 13 SI MM NOT_NAMED 2015-03-08 18:00:00 TS -18.3000 44.4000 main 0 0 O_____________ jtwc_sh SH152015 -18.3000 44.4000 TD 25 1004 -1 1008 165 35 9 143
2015063S14042 2015 13 SI MM NOT_NAMED 2015-03-08 21:00:00 TS -18.7154 44.7192 main 0 0 P_____________ SH152015 -18.7154 44.7192 TD 25 1004 -1 1008 165 35 11 144
2015063S14042 2015 13 SI MM NOT_NAMED 2015-03-09 00:00:00 TS -19.2000 45.1000 main 0 O_____________ jtwc_sh SH152015 -19.2000 45.1000 TD 25 1004 -1 1008 165 35 12 143

About IBTrACS Database

This database is a web-friendly format of International Best Track Archive for Climate Stewardship (IBTrACS), a global best track data archive curated by NOAA dating back to 1842.

Updated: 2021-11-26